Time;durP1;ratioP1;P1;durP2;ratioP2;P2;SDS_P1;SDS_P2;PMS_P1;PMS_P2;Temp;Humidity;BMP_temperature;BMP_pressure;BME280_temperature;BME280_humidity;BME280_pressure;Samples;Min_cycle;Max_cycle;Signal;HPM_P1;HPM_P2
2022/03/05 00:00:00;;;;;;;;;;;;;;;-0.05;100.00;102179.31;5054120;28;19916;-71
2022/03/05 00:02:25;;;;;;;;;;;;;;;-0.12;100.00;102173.09;5053585;28;20354;-71
2022/03/05 00:04:51;;;;;;;;;;;;;;;-0.15;100.00;102179.97;5053244;28;19920;-71
2022/03/05 00:07:17;;;;;;;;;;;;;;;-0.15;100.00;102182.56;5053377;28;20350;-71
2022/03/05 00:09:42;;;;;;;;;;;;;;;-0.14;100.00;102187.81;5053185;28;19924;-71
2022/03/05 00:12:07;;;;;;;;;;;;;;;-0.14;100.00;102192.16;5053251;28;19966;-71
2022/03/05 00:14:32;;;;;;;;;;;;;;;-0.11;100.00;102185.28;5053130;28;19920;-71
2022/03/05 00:16:58;;;;;;;;;;;;;;;-0.13;100.00;102189.56;5053531;28;20369;-71
2022/03/05 00:19:23;;;;;;;;;;;;;;;-0.16;100.00;102179.06;5035113;28;20365;-71
2022/03/05 00:21:48;;;;;;;;;;;;;;;-0.14;100.00;102176.50;5037704;28;19917;-71
2022/03/05 00:24:13;;;;;;;;;;;;;;;-0.08;100.00;102179.25;5039064;28;19917;-71
2022/03/05 00:26:38;;;;;;;;;;;;;;;-0.07;100.00;102186.22;5056665;28;19917;-71
2022/03/05 00:29:04;;;;;;;;;;;;;;;0.00;100.00;102181.16;5038801;28;19917;-71
2022/03/05 00:31:29;;;;;;;;;;;;;;;-0.05;100.00;102179.31;5038695;28;19927;-71
2022/03/05 00:33:54;;;;;;;;;;;;;;;-0.04;100.00;102183.69;5057077;28;20011;-71
2022/03/05 00:36:20;;;;;;;;;;;;;;;-0.19;100.00;102183.38;5057167;28;19917;-71
2022/03/05 00:38:45;;;;;;;;;;;;;;;-0.21;100.00;102180.72;5056299;28;19928;-71
2022/03/05 00:41:11;;;;;;;;;;;;;;;-0.21;100.00;102180.72;5057053;28;19917;-71
2022/03/05 00:43:37;;;;;;;;;;;;;;;-0.24;100.00;102188.47;5056136;28;20373;-71
2022/03/05 00:46:02;;;;;;;;;;;;;;;-0.30;100.00;102184.84;5056365;28;19962;-71
2022/03/05 00:48:27;;;;;;;;;;;;;;;-0.34;100.00;102198.66;5056316;28;20377;-71
2022/03/05 00:50:52;;;;;;;;;;;;;;;-0.40;100.00;102198.53;5056097;28;19927;-71
2022/03/05 00:53:18;;;;;;;;;;;;;;;-0.34;100.00;102190.84;5056636;28;19931;-71
2022/03/05 00:55:43;;;;;;;;;;;;;;;-0.37;100.00;102199.50;5056483;28;19917;-71
2022/03/05 00:58:08;;;;;;;;;;;;;;;-0.40;100.00;102194.22;5038566;28;19956;-71
2022/03/05 01:00:34;;;;;;;;;;;;;;;-0.38;100.00;102196.84;5055989;28;19963;-71
2022/03/05 01:02:59;;;;;;;;;;;;;;;-0.47;100.00;102191.38;5057202;28;19967;-71
2022/03/05 01:05:24;;;;;;;;;;;;;;;-0.47;100.00;102196.59;5038470;28;19964;-71
2022/03/05 01:07:50;;;;;;;;;;;;;;;-0.51;100.00;102190.47;5038189;28;20378;-71
2022/03/05 01:10:15;;;;;;;;;;;;;;;-0.52;100.00;102196.50;5055916;28;19923;-71
2022/03/05 01:12:40;;;;;;;;;;;;;;;-0.54;100.00;102199.94;5055796;28;19921;-71
2022/03/05 01:15:07;;;;;;;;;;;;;;;-0.58;100.00;102205.91;5055774;28;20301;-71
2022/03/05 01:17:32;;;;;;;;;;;;;;;-0.62;100.00;102204.97;5056358;28;19916;-73
2022/03/05 01:19:57;;;;;;;;;;;;;;;-0.59;100.00;102207.66;5055822;28;20317;-71
2022/03/05 01:22:23;;;;;;;;;;;;;;;-0.61;100.00;102206.72;5055435;28;20013;-71
2022/03/05 01:24:48;;;;;;;;;;;;;;;-0.66;100.00;102200.50;5055848;28;20051;-71
2022/03/05 01:27:13;;;;;;;;;;;;;;;-0.65;100.00;102198.81;5055857;28;19950;-71
2022/03/05 01:29:38;;;;;;;;;;;;;;;-0.71;100.00;102204.72;5037752;28;19921;-71
2022/03/05 01:32:04;;;;;;;;;;;;;;;-0.71;100.00;102202.13;5037445;28;20013;-71
2022/03/05 01:34:29;;;;;;;;;;;;;;;-0.75;100.00;102207.22;5055174;28;19921;-71
2022/03/05 01:36:54;;;;;;;;;;;;;;;-0.78;100.00;102208.06;5055497;28;20397;-71
2022/03/05 01:39:20;;;;;;;;;;;;;;;-0.77;100.00;102206.34;5055948;28;19917;-71
2022/03/05 01:41:46;;;;;;;;;;;;;;;-0.84;100.00;102210.50;5037332;28;19924;-71
2022/03/05 01:44:11;;;;;;;;;;;;;;;-0.89;100.00;102206.00;5038069;28;19966;-70
2022/03/05 01:46:38;;;;;;;;;;;;;;;-0.93;100.00;102199.81;5055388;28;19917;-71
2022/03/05 01:49:08;;;;;;;;;;;;;;;-0.95;100.00;102204.16;5054917;28;19964;-71
2022/03/05 01:51:33;;;;;;;;;;;;;;;-1.00;100.00;102207.47;5054930;28;19960;-71
2022/03/05 01:53:59;;;;;;;;;;;;;;;-1.02;100.00;102194.38;5054972;28;19940;-71
2022/03/05 01:56:25;;;;;;;;;;;;;;;-1.05;100.00;102196.91;5055146;28;19917;-71
2022/03/05 01:58:51;;;;;;;;;;;;;;;-1.08;100.00;102194.25;5036698;28;20370;-71
2022/03/05 02:01:16;;;;;;;;;;;;;;;-1.13;100.00;102185.41;5054634;28;19924;-71
2022/03/05 02:03:42;;;;;;;;;;;;;;;-1.15;100.00;102188.84;5054835;28;19923;-71
2022/03/05 02:06:08;;;;;;;;;;;;;;;-1.20;100.00;102191.31;5055109;28;19917;-71
2022/03/05 02:08:33;;;;;;;;;;;;;;;-1.23;100.00;102190.34;5054146;28;20320;-70
2022/03/05 02:10:59;;;;;;;;;;;;;;;-1.28;100.00;102187.63;5054915;28;19921;-69
2022/03/05 02:13:26;;;;;;;;;;;;;;;-1.28;100.00;102181.53;5054769;28;19917;-70
2022/03/05 02:15:54;;;;;;;;;;;;;;;-1.29;100.00;102177.16;5054553;28;19921;-70
2022/03/05 02:18:19;;;;;;;;;;;;;;;-1.33;100.00;102178.81;5054773;28;19921;-70
2022/03/05 02:20:45;;;;;;;;;;;;;;;-1.35;100.00;102176.97;5054357;28;20346;-70
2022/03/05 02:23:10;;;;;;;;;;;;;;;-1.37;100.00;102176.94;5054597;28;19917;-71
2022/03/05 02:25:35;;;;;;;;;;;;;;;-1.41;100.00;102167.28;5054673;28;19917;-70
2022/03/05 02:28:01;;;;;;;;;;;;;;;-1.40;100.00;102171.66;5054292;28;19995;-70
2022/03/05 02:30:26;;;;;;;;;;;;;;;-1.44;100.00;102167.22;5054263;28;20297;-71
2022/03/05 02:32:52;;;;;;;;;;;;;;;-1.44;100.00;102172.44;5054206;28;19917;-70
2022/03/05 02:35:17;;;;;;;;;;;;;;;-1.49;100.00;102163.59;5036083;28;19980;-71
2022/03/05 02:37:42;;;;;;;;;;;;;;;-1.52;100.00;102162.63;5054210;28;19921;-71
2022/03/05 02:40:09;;;;;;;;;;;;;;;-1.49;100.00;102162.72;5017417;28;20351;-70
2022/03/05 02:42:34;;;;;;;;;;;;;;;-1.47;100.00;102163.63;5034642;28;20400;-70
2022/03/05 02:45:00;;;;;;;;;;;;;;;-1.49;100.00;102154.91;5033614;28;19917;-70
2022/03/05 02:47:26;;;;;;;;;;;;;;;-1.47;100.00;102155.81;5034097;28;19917;-70
2022/03/05 02:49:51;;;;;;;;;;;;;;;-1.44;100.00;102162.00;5034108;28;19921;-70
2022/03/05 02:52:16;;;;;;;;;;;;;;;-1.49;100.00;102163.59;5034044;28;20020;-70
2022/03/05 02:54:41;;;;;;;;;;;;;;;-1.48;100.00;102159.28;5034319;28;19952;-71
2022/03/05 02:57:06;;;;;;;;;;;;;;;-1.55;100.00;102158.22;5034159;28;19917;-70
2022/03/05 02:59:32;;;;;;;;;;;;;;;-1.61;100.00;102158.94;5034022;28;19917;-70
2022/03/05 03:01:57;;;;;;;;;;;;;;;-1.61;100.00;102158.06;5033972;28;19918;-70
2022/03/05 03:04:22;;;;;;;;;;;;;;;-1.61;100.00;102147.66;5034108;28;19957;-70
2022/03/05 03:06:50;;;;;;;;;;;;;;;-1.64;100.00;102144.97;5034862;28;20011;-70
2022/03/05 03:09:15;;;;;;;;;;;;;;;-1.68;100.00;102148.31;5034361;28;19924;-70
2022/03/05 03:11:40;;;;;;;;;;;;;;;-1.76;100.00;102142.91;5034652;28;19937;-71
2022/03/05 03:14:05;;;;;;;;;;;;;;;-1.74;100.00;102135.13;5033859;28;19917;-71
2022/03/05 03:16:30;;;;;;;;;;;;;;;-1.73;100.00;102137.78;5016836;28;19917;-71
2022/03/05 03:18:56;;;;;;;;;;;;;;;-1.75;100.00;102139.44;5036252;28;19963;-71
2022/03/05 03:21:21;;;;;;;;;;;;;;;-1.80;100.00;102141.03;5053379;28;19944;-71
2022/03/05 03:24:00;;;;;;;;;;;;;;;-1.84;100.00;102127.88;5050184;28;19916;-71
2022/03/05 03:26:26;;;;;;;;;;;;;;;-1.82;100.00;102127.13;5059854;28;19955;-71
2022/03/05 03:28:57;;;;;;;;;;;;;;;-1.86;100.00;102129.59;5053771;28;19924;-71
2022/03/05 03:31:22;;;;;;;;;;;;;;;-1.85;100.00;102128.75;5053895;28;19943;-70
2022/03/05 03:33:47;;;;;;;;;;;;;;;-1.85;100.00;102126.13;5071933;23;19932;-68
2022/03/05 03:36:13;;;;;;;;;;;;;;;-1.90;100.00;102126.00;5069014;28;19924;-68
2022/03/05 03:38:40;;;;;;;;;;;;;;;-1.93;100.00;102122.44;5067906;28;20407;-68
2022/03/05 03:41:05;;;;;;;;;;;;;;;-1.93;100.00;102132.84;5061772;28;20474;-68
2022/03/05 03:43:30;;;;;;;;;;;;;;;-1.96;100.00;102122.34;5074172;28;20061;-68
2022/03/05 03:45:55;;;;;;;;;;;;;;;-1.93;100.00;102115.53;5075044;28;19923;-68
2022/03/05 03:48:21;;;;;;;;;;;;;;;-1.98;100.00;102113.63;5056644;28;19917;-68
2022/03/05 03:50:46;;;;;;;;;;;;;;;-2.01;100.00;102105.72;5068374;28;19961;-68
2022/03/05 03:53:11;;;;;;;;;;;;;;;-2.02;100.00;102110.03;5075397;28;19917;-68
2022/03/05 03:55:37;;;;;;;;;;;;;;;-2.03;100.00;102115.19;5067439;28;19917;-68
2022/03/05 03:58:02;;;;;;;;;;;;;;;-2.06;100.00;102108.19;5064676;28;19927;-69
2022/03/05 04:00:27;;;;;;;;;;;;;;;-2.04;100.00;102114.34;5079904;28;19924;-68
2022/03/05 04:02:52;;;;;;;;;;;;;;;-2.08;100.00;102116.81;5061815;28;20004;-68
2022/03/05 04:05:18;;;;;;;;;;;;;;;-2.08;100.00;102119.41;5059776;28;19921;-68
2022/03/05 04:10:27;;;;;;;;;;;;;;;-2.15;100.00;102110.56;5060776;28;19923;-68
2022/03/05 04:12:52;;;;;;;;;;;;;;;-2.11;100.00;102111.53;5059244;28;19917;-68
2022/03/05 04:15:18;;;;;;;;;;;;;;;-2.16;100.00;102103.56;5060154;28;19916;-69
2022/03/05 04:17:44;;;;;;;;;;;;;;;-2.18;100.00;102112.19;5058500;28;19929;-68
2022/03/05 04:20:09;;;;;;;;;;;;;;;-2.21;100.00;102109.50;5072944;28;19920;-69
2022/03/05 04:22:34;;;;;;;;;;;;;;;-2.20;100.00;102111.25;5069288;28;19940;-68
2022/03/05 04:25:01;;;;;;;;;;;;;;;-2.24;100.00;102114.59;5059666;28;19916;-68
2022/03/05 04:27:26;;;;;;;;;;;;;;;-2.29;100.00;102114.47;5068214;28;19916;-68
2022/03/05 04:29:51;;;;;;;;;;;;;;;-2.30;100.00;102115.28;5077361;28;19924;-69
2022/03/05 04:32:16;;;;;;;;;;;;;;;-2.29;100.00;102118.78;5079179;28;19916;-68
2022/03/05 04:34:41;;;;;;;;;;;;;;;-2.32;100.00;102126.50;5065164;28;19921;-68
2022/03/05 04:37:07;;;;;;;;;;;;;;;-2.34;100.00;102136.88;5038127;28;19923;-68
2022/03/05 04:39:32;;;;;;;;;;;;;;;-2.33;100.00;102130.81;5050093;28;19917;-68
2022/03/05 04:41:57;;;;;;;;;;;;;;;-2.29;100.00;102132.69;5064658;28;20015;-68
2022/03/05 04:44:22;;;;;;;;;;;;;;;-2.32;100.00;102139.50;5070029;28;19917;-68
2022/03/05 04:46:47;;;;;;;;;;;;;;;-2.35;100.00;102129.88;5059564;28;19970;-69
2022/03/05 04:49:13;;;;;;;;;;;;;;;-2.36;100.00;102140.25;5066919;28;20015;-69
2022/03/05 04:51:39;;;;;;;;;;;;;;;-2.38;100.00;102137.59;5045022;28;19931;-69
2022/03/05 04:54:04;;;;;;;;;;;;;;;-2.41;100.00;102147.06;5059740;28;19960;-70
2022/03/05 04:56:31;;;;;;;;;;;;;;;-2.40;100.00;102144.50;5060914;28;19924;-70
2022/03/05 04:58:56;;;;;;;;;;;;;;;-2.45;100.00;102151.28;5059816;28;19920;-69
2022/03/05 05:01:22;;;;;;;;;;;;;;;-2.45;100.00;102155.56;5049732;28;20281;-69
2022/03/05 05:03:55;;;;;;;;;;;;;;;-2.46;100.00;102161.63;5039172;28;20071;-69
2022/03/05 05:06:30;;;;;;;;;;;;;;;-2.50;100.00;102168.44;5039050;28;19928;-69
2022/03/05 05:08:55;;;;;;;;;;;;;;;-2.51;100.00;102158.88;5049582;28;19921;-69
2022/03/05 05:11:23;;;;;;;;;;;;;;;-2.48;100.00;102176.28;5075052;28;19992;-69
2022/03/05 05:13:49;;;;;;;;;;;;;;;-2.51;100.00;102168.41;5074918;28;20346;-69
2022/03/05 05:16:14;;;;;;;;;;;;;;;-2.54;100.00;102165.72;5058571;28;19924;-69
2022/03/05 05:19:24;;;;;;;;;;;;;;;-2.57;100.00;102169.09;5059074;28;19928;-69
2022/03/05 05:21:24;;;;;;;;;;;;;;;-2.59;100.00;102177.69;5059073;28;19923;-69
2022/03/05 05:23:50;;;;;;;;;;;;;;;-2.66;100.00;102176.59;5060165;28;19968;-69
2022/03/05 05:26:15;;;;;;;;;;;;;;;-2.66;100.00;102178.34;5073169;28;20595;-69
2022/03/05 05:28:40;;;;;;;;;;;;;;;-2.67;100.00;102179.16;5068778;28;20028;-69
2022/03/05 05:31:05;;;;;;;;;;;;;;;-2.65;100.00;102182.69;5066761;28;19923;-70
2022/03/05 05:33:31;;;;;;;;;;;;;;;-2.70;100.00;102182.56;5073061;28;19929;-69
2022/03/05 05:35:58;;;;;;;;;;;;;;;-2.72;100.00;102191.13;5044974;28;19963;-70
2022/03/05 05:38:23;;;;;;;;;;;;;;;-2.78;100.00;102196.13;5056490;28;19920;-69
2022/03/05 05:40:48;;;;;;;;;;;;;;;-2.81;100.00;102199.53;5059359;28;20366;-69
2022/03/05 05:43:20;;;;;;;;;;;;;;;-2.82;100.00;102204.66;5056083;28;19924;-69
2022/03/05 05:45:45;;;;;;;;;;;;;;;-2.87;100.00;102201.03;5055424;28;19941;-70
2022/03/05 05:48:10;;;;;;;;;;;;;;;-2.85;100.00;102201.97;5050909;28;20366;-69
2022/03/05 05:50:35;;;;;;;;;;;;;;;-2.82;100.00;102209.88;5038331;28;19928;-70
2022/03/05 05:53:00;;;;;;;;;;;;;;;-2.86;100.00;102211.47;5047566;28;19917;-69
2022/03/05 05:55:26;;;;;;;;;;;;;;;-2.83;100.00;102221.06;5039087;28;19921;-69
2022/03/05 05:57:51;;;;;;;;;;;;;;;-2.81;100.00;102222.03;5039686;28;20416;-69
2022/03/05 06:00:16;;;;;;;;;;;;;;;-2.79;100.00;102215.16;5040770;28;20387;-70
2022/03/05 06:02:41;;;;;;;;;;;;;;;-2.79;100.00;102228.16;5040406;28;19964;-69
2022/03/05 06:05:07;;;;;;;;;;;;;;;-2.81;100.00;102237.63;5040229;28;19924;-69
2022/03/05 06:07:33;;;;;;;;;;;;;;;-2.85;100.00;102230.56;5043339;28;20309;-69
2022/03/05 06:09:58;;;;;;;;;;;;;;;-2.90;100.00;102238.22;5055236;28;20005;-69
2022/03/05 06:12:23;;;;;;;;;;;;;;;-2.90;100.00;102238.22;5050319;28;19917;-69
2022/03/05 06:14:48;;;;;;;;;;;;;;;-2.90;100.00;102245.13;5048952;28;19978;-70
2022/03/05 06:17:13;;;;;;;;;;;;;;;-2.93;100.00;102242.41;5052779;28;20278;-70
2022/03/05 06:19:39;;;;;;;;;;;;;;;-2.94;100.00;102246.72;5058578;28;19921;-70
2022/03/05 06:22:06;;;;;;;;;;;;;;;-2.95;100.00;102249.28;5058326;28;20691;-70
2022/03/05 06:24:31;;;;;;;;;;;;;;;-2.91;100.00;102246.81;5058507;28;19927;-70
2022/03/05 06:26:57;;;;;;;;;;;;;;;-2.90;100.00;102255.50;5059212;28;20052;-69
2022/03/05 06:29:22;;;;;;;;;;;;;;;-2.88;100.00;102257.31;5064297;28;19917;-70
2022/03/05 06:31:47;;;;;;;;;;;;;;;-2.86;100.00;102263.47;5070449;28;19932;-70
2022/03/05 06:34:12;;;;;;;;;;;;;;;-2.82;100.00;102256.66;5061333;28;19929;-69
2022/03/05 06:36:38;;;;;;;;;;;;;;;-2.79;100.00;102264.56;5035326;28;19925;-70
2022/03/05 06:39:03;;;;;;;;;;;;;;;-2.76;100.00;102262.06;5048215;28;19924;-70
2022/03/05 06:41:28;;;;;;;;;;;;;;;-2.76;100.00;102268.16;5069052;28;19928;-70
2022/03/05 06:43:53;;;;;;;;;;;;;;;-2.72;100.00;102259.59;5069236;28;19952;-69
2022/03/05 06:46:19;;;;;;;;;;;;;;;-2.70;100.00;102264.84;5066869;28;19927;-70
2022/03/05 06:48:46;;;;;;;;;;;;;;;-2.59;100.00;102267.00;5060005;28;19959;-69
2022/03/05 06:51:11;;;;;;;;;;;;;;;-2.55;100.00;102267.97;5071662;28;19920;-69
2022/03/05 06:53:37;;;;;;;;;;;;;;;-2.55;100.00;102268.84;5072064;28;20401;-69
2022/03/05 06:56:02;;;;;;;;;;;;;;;-2.53;100.00;102271.50;5062314;28;20370;-69
2022/03/05 06:58:28;;;;;;;;;;;;;;;-2.45;100.00;102270.03;5065754;28;19920;-69
2022/03/05 07:00:53;;;;;;;;;;;;;;;-2.39;100.00;102275.41;5068399;28;19916;-69
2022/03/05 07:03:18;;;;;;;;;;;;;;;-2.41;100.00;102277.97;5067745;28;19991;-70
2022/03/05 07:05:43;;;;;;;;;;;;;;;-2.35;100.00;102282.50;5064807;28;19920;-69
2022/03/05 07:08:08;;;;;;;;;;;;;;;-2.33;100.00;102289.50;5061127;28;19928;-69
2022/03/05 07:10:34;;;;;;;;;;;;;;;-2.28;100.00;102293.16;5072566;28;19921;-69
2022/03/05 07:12:59;;;;;;;;;;;;;;;-2.20;100.00;102298.59;5064992;28;20289;-69
2022/03/05 07:15:24;;;;;;;;;;;;;;;-2.20;100.00;102296.88;5056465;28;19952;-69
2022/03/05 07:17:51;;;;;;;;;;;;;;;-2.16;100.00;102300.47;5056381;28;20019;-71
2022/03/05 07:20:17;;;;;;;;;;;;;;;-2.12;100.00;102302.31;5058079;28;19987;-69
2022/03/05 07:22:43;;;;;;;;;;;;;;;-2.07;100.00;102292.94;5055619;28;19917;-73
2022/03/05 07:25:08;;;;;;;;;;;;;;;-2.00;100.00;102307.94;5058755;28;19921;-74
2022/03/05 07:27:34;;;;;;;;;;;;;;;-1.98;100.00;102307.13;5055987;28;19927;-69
2022/03/05 07:29:59;;;;;;;;;;;;;;;-1.94;100.00;102303.78;5040707;28;19917;-68
2022/03/05 07:32:24;;;;;;;;;;;;;;;-1.84;100.00;102312.75;5040015;28;19938;-69
2022/03/05 07:34:49;;;;;;;;;;;;;;;-1.82;100.00;102318.91;5058150;28;19978;-68
2022/03/05 07:37:14;;;;;;;;;;;;;;;-1.78;100.00;102315.56;5068458;28;19921;-72
2022/03/05 07:39:39;;;;;;;;;;;;;;;-1.76;100.00;102319.97;5048625;28;20348;-70
2022/03/05 07:42:05;;;;;;;;;;;;;;;-1.63;100.00;102310.81;5042579;28;19924;-70
2022/03/05 07:44:30;;;;;;;;;;;;;;;-1.66;100.00;102316.81;5054739;28;19929;-71
2022/03/05 07:46:56;;;;;;;;;;;;;;;-1.63;100.00;102322.13;5059922;28;20391;-69
2022/03/05 07:49:24;;;;;;;;;;;;;;;-1.59;100.00;102323.06;5073977;28;19916;-69
2022/03/05 07:51:50;;;;;;;;;;;;;;;-1.52;100.00;102327.63;5071588;28;19928;-69
2022/03/05 07:54:15;;;;;;;;;;;;;;;-1.45;100.00;102331.31;5055508;28;19916;-72
2022/03/05 07:56:41;;;;;;;;;;;;;;;-1.37;100.00;102328.06;5045787;28;19921;-69
2022/03/05 07:59:06;;;;;;;;;;;;;;;-1.33;100.00;102337.75;5053048;28;19979;-69
2022/03/05 08:01:31;;;;;;;;;;;;;;;-1.25;100.00;102343.19;5048157;28;20020;-72
2022/03/05 08:03:56;;;;;;;;;;;;;;;-1.20;100.00;102337.28;5053935;28;19923;-69
2022/03/05 08:06:22;;;;;;;;;;;;;;;-1.08;100.00;102348.06;5053979;28;19987;-69
2022/03/05 08:08:47;;;;;;;;;;;;;;;-1.06;100.00;102348.09;5041760;28;19917;-68
2022/03/05 08:11:12;;;;;;;;;;;;;;;-1.00;100.00;102338.72;5043929;28;19917;-70
2022/03/05 08:13:37;;;;;;;;;;;;;;;-0.87;100.00;102337.34;5057569;28;19976;-69
2022/03/05 08:16:03;;;;;;;;;;;;;;;-0.86;100.00;102337.38;5038764;28;19944;-70
2022/03/05 08:18:28;;;;;;;;;;;;;;;-0.77;100.00;102335.00;5061469;28;20400;-70
2022/03/05 08:20:53;;;;;;;;;;;;;;;-0.76;100.00;102333.28;5053028;28;20404;-70
2022/03/05 08:23:18;;;;;;;;;;;;;;;-0.68;100.00;102337.84;5043284;28;20338;-70
2022/03/05 08:25:44;;;;;;;;;;;;;;;-0.63;100.00;102338.00;5040414;28;19984;-70
2022/03/05 08:28:09;;;;;;;;;;;;;;;-0.56;100.00;102342.50;5056588;28;19916;-70
2022/03/05 08:30:34;;;;;;;;;;;;;;;-0.58;100.00;102336.38;5050777;28;20070;-70
2022/03/05 08:32:59;;;;;;;;;;;;;;;-0.50;100.00;102330.50;5055382;28;19917;-71
2022/03/05 08:35:25;;;;;;;;;;;;;;;-0.47;100.00;102333.19;5056987;28;20777;-71
2022/03/05 08:37:51;;;;;;;;;;;;;;;-0.34;100.00;102329.16;5060714;28;19929;-70
2022/03/05 08:40:16;;;;;;;;;;;;;;;-0.15;100.00;102334.00;5063590;28;19917;-70
2022/03/05 08:42:42;;;;;;;;;;;;;;;-0.23;100.00;102323.38;5062525;28;19956;-70
2022/03/05 08:45:08;;;;;;;;;;;;;;;-0.18;100.00;102320.88;5058552;28;19920;-70
2022/03/05 08:47:33;;;;;;;;;;;;;;;-0.08;100.00;102320.25;5041882;28;20295;-69
2022/03/05 08:49:59;;;;;;;;;;;;;;;-0.04;100.00;102309.91;5056767;28;19916;-70
2022/03/05 08:52:24;;;;;;;;;;;;;;;0.02;100.00;102305.69;5056716;28;19921;-69
2022/03/05 08:54:49;;;;;;;;;;;;;;;0.03;100.00;102303.13;5060872;28;19921;-69
2022/03/05 08:57:15;;;;;;;;;;;;;;;0.07;100.00;102296.22;5056667;28;19921;-69
2022/03/05 08:59:40;;;;;;;;;;;;;;;0.17;100.00;102293.84;5046635;28;19917;-69
2022/03/05 09:02:06;;;;;;;;;;;;;;;0.26;100.00;102282.72;5042818;28;19924;-70
2022/03/05 09:04:32;;;;;;;;;;;;;;;0.36;100.00;102284.69;5062265;28;20011;-69
2022/03/05 09:06:57;;;;;;;;;;;;;;;0.43;100.00;102278.72;5058028;28;19967;-70
2022/03/05 09:09:22;;;;;;;;;;;;;;;0.54;100.00;102277.22;5048555;28;20352;-69
2022/03/05 09:11:47;;;;;;;;;;;;;;;0.79;100.00;102277.75;5040663;28;19927;-69
2022/03/05 09:14:13;;;;;;;;;;;;;;;0.80;100.00;102274.31;5041283;28;19923;-70
2022/03/05 09:16:38;;;;;;;;;;;;;;;0.76;100.00;102272.47;5056401;28;19956;-72
2022/03/05 09:19:04;;;;;;;;;;;;;;;0.89;100.00;102273.59;5053977;28;19968;-70
2022/03/05 09:21:29;;;;;;;;;;;;;;;1.04;100.00;102273.88;5051735;28;19917;-72
2022/03/05 09:23:54;;;;;;;;;;;;;;;1.07;100.00;102260.88;5057333;28;20013;-71
2022/03/05 09:26:20;;;;;;;;;;;;;;;0.94;100.00;102269.31;5054485;28;19943;-70
2022/03/05 09:28:45;;;;;;;;;;;;;;;1.13;100.00;102263.59;5055410;28;19974;-69
2022/03/05 09:31:10;;;;;;;;;;;;;;;1.25;100.00;102262.06;5071886;28;19916;-69
2022/03/05 09:33:36;;;;;;;;;;;;;;;1.25;100.00;102251.59;5072018;28;20340;-70
2022/03/05 09:36:02;;;;;;;;;;;;;;;1.30;100.00;102256.91;5071127;28;20004;-70
2022/03/05 09:38:27;;;;;;;;;;;;;;;1.24;100.00;102249.84;5056269;28;19917;-72
2022/03/05 09:40:52;;;;;;;;;;;;;;;1.34;100.00;102248.25;5057873;28;19928;-71
2022/03/05 09:43:18;;;;;;;;;;;;;;;1.34;100.00;102245.63;5059950;28;19927;-78
2022/03/05 09:45:44;;;;;;;;;;;;;;;1.41;100.00;102239.66;5059148;28;19920;-72
2022/03/05 09:48:09;;;;;;;;;;;;;;;1.63;100.00;102243.50;5061119;28;19921;-71
2022/03/05 09:50:35;;;;;;;;;;;;;;;1.61;100.00;102242.59;5066230;28;19917;-71
2022/03/05 09:53:00;;;;;;;;;;;;;;;1.55;100.00;102246.00;5058564;28;19921;-71
2022/03/05 09:55:33;;;;;;;;;;;;;;;1.65;100.00;102241.78;5061280;28;19917;-74
2022/03/05 09:57:59;;;;;;;;;;;;;;;1.78;100.00;102239.38;5059673;28;19982;-70
2022/03/05 10:00:24;;;;;;;;;;;;;;;2.03;100.00;102238.00;5049598;28;19917;-71
2022/03/05 10:03:10;;;;;;;;;;;;;;;2.15;100.00;102228.56;5047234;28;20279;-70
2022/03/05 10:05:36;;;;;;;;;;;;;;;2.24;100.00;102231.31;5055354;28;19924;-71
2022/03/05 10:08:01;;;;;;;;;;;;;;;2.23;100.00;102224.31;5062261;28;19943;-71
2022/03/05 10:10:27;;;;;;;;;;;;;;;2.17;100.00;102219.00;5058564;28;19921;-71
2022/03/05 10:12:53;;;;;;;;;;;;;;;2.15;100.00;102223.31;5058233;28;20016;-71
2022/03/05 10:15:20;;;;;;;;;;;;;;;2.31;100.00;102220.06;5057609;28;19921;-71
2022/03/05 10:17:58;;;;;;;;;;;;;;;2.38;100.00;102224.50;5055906;28;19917;-72
2022/03/05 10:20:25;;;;;;;;;;;;;;;2.71;100.00;102218.78;5048863;28;19917;-72
2022/03/05 10:22:58;;;;;;;;;;;;;;;2.91;100.00;102218.13;5059210;28;19932;-72
2022/03/05 10:25:37;;;;;;;;;;;;;;;2.81;100.00;102221.50;5049272;28;19921;-71
2022/03/05 10:28:04;;;;;;;;;;;;;;;2.86;100.00;102218.94;5049948;28;19917;-72
2022/03/05 10:30:34;;;;;;;;;;;;;;;2.95;100.00;102219.03;5042937;28;19988;-70
2022/03/05 10:32:59;;;;;;;;;;;;;;;3.18;100.00;102218.38;5056385;28;19932;-72
2022/03/05 10:35:24;;;;;;;;;;;;;;;3.23;100.00;102207.06;5056320;28;19925;-69
2022/03/05 10:37:51;;;;;;;;;;;;;;;3.36;100.00;102203.69;5044251;28;19968;-71
2022/03/05 10:40:23;;;;;;;;;;;;;;;3.49;100.00;102210.75;5049546;28;20306;-71
2022/03/05 10:42:49;;;;;;;;;;;;;;;3.57;100.00;102203.81;5043576;28;19990;-72
2022/03/05 10:45:18;;;;;;;;;;;;;;;3.74;100.00;102203.06;5046260;28;19917;-75
2022/03/05 10:47:45;;;;;;;;;;;;;;;3.81;100.00;102204.91;5049541;28;19921;-70
2022/03/05 10:50:21;;;;;;;;;;;;;;;4.09;100.00;102206.81;5049995;28;19921;-70
2022/03/05 10:52:50;;;;;;;;;;;;;;;4.28;100.00;102197.25;5044958;28;20355;-72
2022/03/05 10:55:27;;;;;;;;;;;;;;;4.45;100.00;102203.44;5036611;28;19917;-73
2022/03/05 10:57:55;;;;;;;;;;;;;;;4.65;100.00;102189.50;5036049;28;19917;-69
2022/03/05 11:00:21;;;;;;;;;;;;;;;5.07;100.00;102183.44;5038289;28;19917;-72
2022/03/05 11:02:47;;;;;;;;;;;;;;;5.39;100.00;102191.38;5054431;28;19917;-71
2022/03/05 11:05:13;;;;;;;;;;;;;;;5.90;100.00;102181.66;5037576;28;19917;-72
2022/03/05 11:07:39;;;;;;;;;;;;;;;6.84;100.00;102178.63;5035615;28;20406;-76
2022/03/05 11:10:05;;;;;;;;;;;;;;;8.27;100.00;102177.31;5052792;28;19925;-70
2022/03/05 11:12:31;;;;;;;;;;;;;;;9.73;100.00;102165.34;5054704;28;20370;-69
2022/03/05 11:15:10;;;;;;;;;;;;;;;11.34;100.00;102161.88;5054992;28;19970;-72
2022/03/05 11:17:36;;;;;;;;;;;;;;;12.33;100.00;102179.63;5048281;28;19921;-74
2022/03/05 11:23:04;;;;;;;;;;;;;;;13.54;100.00;102192.72;5039641;28;19924;-71
2022/03/05 11:25:31;;;;;;;;;;;;;;;14.62;100.00;102188.78;5055647;28;19917;-70
2022/03/05 11:28:07;;;;;;;;;;;;;;;15.12;100.00;102184.16;5054866;28;19917;-72
2022/03/05 11:30:39;;;;;;;;;;;;;;;15.54;100.00;102193.16;5053481;28;20007;-71
2022/03/05 11:33:08;;;;;;;;;;;;;;;15.41;100.00;102191.06;5054966;28;19968;-71
2022/03/05 11:35:34;;;;;;;;;;;;;;;15.55;100.00;102192.22;5053407;28;20340;-73
2022/03/05 11:37:59;;;;;;;;;;;;;;;16.13;100.00;102190.59;5053420;28;19924;-73
2022/03/05 11:40:31;;;;;;;;;;;;;;;16.81;100.00;102193.72;5054856;28;19921;-71
2022/03/05 11:43:14;;;;;;;;;;;;;;;16.81;100.00;102194.56;5054650;28;19924;-72
2022/03/05 11:45:45;;;;;;;;;;;;;;;17.03;100.00;102197.13;5053661;28;19921;-70
2022/03/05 11:48:30;;;;;;;;;;;;;;;16.91;100.00;102195.00;5054836;28;19917;-73
2022/03/05 11:51:16;;;;;;;;;;;;;;;18.20;100.00;102191.13;5052937;28;19924;-71
2022/03/05 11:53:42;;;;;;;;;;;;;;;17.80;100.00;102198.66;5034801;28;20390;-72
2022/03/05 11:56:27;;;;;;;;;;;;;;;17.98;100.00;102193.19;5055684;28;19952;-74
2022/03/05 11:58:53;;;;;;;;;;;;;;;18.00;100.00;102196.69;5044800;28;19928;-71
2022/03/05 12:01:41;;;;;;;;;;;;;;;19.72;100.00;102205.91;5048671;28;19925;-70
2022/03/05 12:04:16;;;;;;;;;;;;;;;19.60;100.00;102199.38;5049511;28;19976;-70
2022/03/05 12:06:45;;;;;;;;;;;;;;;19.82;100.00;102200.84;5046778;28;19956;-70
2022/03/05 12:09:30;;;;;;;;;;;;;;;19.88;100.00;102198.63;5044349;28;19925;-70
2022/03/05 12:11:55;;;;;;;;;;;;;;;19.60;100.00;102199.38;5052498;28;20393;-71
2022/03/05 12:14:20;;;;;;;;;;;;;;;20.73;100.00;102192.41;5051124;28;19920;-70
2022/03/05 12:16:47;;;;;;;;;;;;;;;19.75;100.00;102198.50;5054187;28;19960;-70
2022/03/05 12:19:14;;;;;;;;;;;;;;;20.68;100.00;102191.84;5061746;28;20022;-71
2022/03/05 12:21:40;;;;;;;;;;;;;;;21.32;100.00;102182.31;5062759;28;19920;-70
2022/03/05 12:24:09;;;;;;;;;;;;;;;22.62;100.00;102197.56;5060473;28;20044;-70
2022/03/05 12:26:34;;;;;;;;;;;;;;;21.98;100.00;102200.28;5057517;28;20308;-71
2022/03/05 12:29:00;;;;;;;;;;;;;;;21.86;100.00;102197.53;5056052;28;19970;-69